createdAt,value
2022-10-05T00:01:17.491Z,6.10
2022-10-05T00:03:43.913Z,6.70
2022-10-05T00:06:11.956Z,6.07
2022-10-05T00:08:38.256Z,6.40
2022-10-05T00:11:07.581Z,6.57
2022-10-05T00:13:34.386Z,6.17
2022-10-05T00:16:20.470Z,5.90
2022-10-05T00:18:52.852Z,6.83
2022-10-05T00:21:21.888Z,5.80
2022-10-05T00:23:49.100Z,6.27
2022-10-05T00:26:22.754Z,6.63
2022-10-05T00:28:49.561Z,5.97
2022-10-05T00:31:21.841Z,6.50
2022-10-05T00:33:48.856Z,6.20
2022-10-05T00:36:15.566Z,6.27
2022-10-05T00:38:42.095Z,5.63
2022-10-05T00:41:23.005Z,6.07
2022-10-05T00:44:09.729Z,5.50
2022-10-05T00:47:02.949Z,6.47
2022-10-05T00:49:35.325Z,6.17
2022-10-05T00:52:21.899Z,5.13
2022-10-05T00:55:17.196Z,5.97
2022-10-05T00:58:04.949Z,6.00
2022-10-05T01:00:34.492Z,6.23
2022-10-05T01:03:03.900Z,6.50
2022-10-05T01:05:54.877Z,6.23
2022-10-05T01:08:58.399Z,6.53
2022-10-05T01:11:34.804Z,6.23
2022-10-05T01:14:15.795Z,6.63
2022-10-05T01:16:42.071Z,6.57
2022-10-05T01:19:25.249Z,6.00
2022-10-05T01:22:03.713Z,6.57
2022-10-05T01:24:39.304Z,6.80
2022-10-05T01:27:15.377Z,7.40
2022-10-05T01:29:56.192Z,6.07
2022-10-05T01:32:34.281Z,7.03
2022-10-05T01:35:13.689Z,6.93
2022-10-05T01:38:28.116Z,7.27
2022-10-05T01:41:03.788Z,7.00
2022-10-05T01:43:48.798Z,6.63
2022-10-05T01:46:37.841Z,6.67
2022-10-05T01:49:20.938Z,7.00
2022-10-05T01:52:08.315Z,6.50
2022-10-05T01:54:55.284Z,6.87
2022-10-05T01:57:27.676Z,7.30
2022-10-05T02:00:16.041Z,6.87
2022-10-05T02:02:47.551Z,7.37
2022-10-05T02:05:20.485Z,7.03
2022-10-05T02:08:08.100Z,7.13
2022-10-05T02:10:43.466Z,6.90
2022-10-05T02:13:15.405Z,6.40
2022-10-05T02:16:06.589Z,6.80
2022-10-05T02:18:36.733Z,7.27
2022-10-05T02:21:05.365Z,6.87
2022-10-05T02:23:33.516Z,7.17
2022-10-05T02:26:01.230Z,7.07
2022-10-05T02:28:33.482Z,6.90
2022-10-05T02:31:29.390Z,6.47
2022-10-05T02:34:25.421Z,6.80
2022-10-05T02:37:27.040Z,7.13
2022-10-05T02:40:13.100Z,6.67
2022-10-05T02:42:42.389Z,6.73
2022-10-05T02:45:34.693Z,6.30
2022-10-05T02:48:26.838Z,6.43
2022-10-05T02:51:02.769Z,6.93
2022-10-05T02:53:37.702Z,6.77
2022-10-05T02:56:31.255Z,6.47
2022-10-05T02:59:11.032Z,6.17
2022-10-05T03:01:49.209Z,7.07
2022-10-05T03:04:29.405Z,7.27
2022-10-05T03:06:56.696Z,7.20
2022-10-05T03:09:28.847Z,6.23
2022-10-05T03:12:11.935Z,6.90
2022-10-05T03:15:16.666Z,6.67
2022-10-05T03:17:47.958Z,7.10
2022-10-05T03:20:34.062Z,6.67
2022-10-05T03:23:02.685Z,7.37
2022-10-05T03:25:56.479Z,6.47
2022-10-05T03:28:53.792Z,7.17
2022-10-05T03:31:52.632Z,7.00
2022-10-05T03:34:48.553Z,6.70
2022-10-05T03:37:22.897Z,6.40
2022-10-05T03:40:08.757Z,6.37
2022-10-05T03:42:57.699Z,6.63
2022-10-05T03:45:39.900Z,5.73
2022-10-05T03:48:22.788Z,6.70
2022-10-05T03:51:02.329Z,5.83
2022-10-05T03:53:35.411Z,6.57
2022-10-05T03:56:09.795Z,6.73
2022-10-05T03:58:40.912Z,6.50
2022-10-05T04:01:15.235Z,5.80
2022-10-05T04:03:49.428Z,6.27
2022-10-05T04:06:25.975Z,6.23
2022-10-05T04:09:13.537Z,7.13
2022-10-05T04:11:46.208Z,6.23
2022-10-05T04:14:21.872Z,5.80
2022-10-05T04:16:55.620Z,6.00
2022-10-05T04:19:25.316Z,6.43
2022-10-05T04:22:03.620Z,6.23
2022-10-05T04:25:01.312Z,5.97
2022-10-05T04:27:34.748Z,6.10
2022-10-05T04:30:05.063Z,6.53
2022-10-05T04:32:42.388Z,6.47
2022-10-05T04:35:33.293Z,6.80
2022-10-05T04:38:23.426Z,6.57
2022-10-05T04:41:13.347Z,6.43
2022-10-05T04:44:00.192Z,6.27
2022-10-05T04:46:44.615Z,6.57
2022-10-05T04:49:34.019Z,6.60
2022-10-05T04:52:00.360Z,6.37
2022-10-05T04:54:49.175Z,6.40
2022-10-05T04:57:34.648Z,5.60
2022-10-05T05:00:08.889Z,6.40
2022-10-05T05:02:43.823Z,6.53
2022-10-05T05:05:27.077Z,5.80
2022-10-05T05:08:13.985Z,6.80
2022-10-05T05:10:40.250Z,6.07
2022-10-05T05:13:26.164Z,6.03
2022-10-05T05:15:52.814Z,6.27
2022-10-05T05:19:05.482Z,6.33
2022-10-05T05:21:55.108Z,5.97
2022-10-05T05:24:27.829Z,6.47
2022-10-05T05:27:03.793Z,6.93
2022-10-05T05:29:30.585Z,6.17
2022-10-05T05:32:08.183Z,5.87
2022-10-05T05:35:11.881Z,7.03
2022-10-05T05:38:06.208Z,5.70
2022-10-05T05:40:45.969Z,6.03
2022-10-05T05:43:26.569Z,6.03
2022-10-05T05:46:00.770Z,6.40
2022-10-05T05:48:38.022Z,5.97
2022-10-05T05:51:14.056Z,5.47
2022-10-05T05:53:43.781Z,6.20
2022-10-05T05:56:23.912Z,5.70
2022-10-05T05:59:06.366Z,5.80
2022-10-05T06:01:44.160Z,5.30
2022-10-05T06:04:19.460Z,6.13
2022-10-05T06:06:48.784Z,5.07
2022-10-05T06:09:37.714Z,5.33
2022-10-05T06:12:16.680Z,5.13
2022-10-05T06:14:45.908Z,5.10
2022-10-05T06:17:17.550Z,4.73
2022-10-05T06:19:46.564Z,5.70
2022-10-05T06:22:30.055Z,4.87
2022-10-05T06:25:11.795Z,4.87
2022-10-05T06:28:14.842Z,5.33
2022-10-05T06:31:02.445Z,4.93
2022-10-05T06:33:34.127Z,5.43
2022-10-05T06:36:20.093Z,5.50
2022-10-05T06:39:04.848Z,5.13
2022-10-05T06:41:43.263Z,5.40
2022-10-05T06:44:21.504Z,5.00
2022-10-05T06:47:35.053Z,5.57
2022-10-05T06:50:29.361Z,5.03
2022-10-05T06:53:07.247Z,5.03
2022-10-05T06:55:45.972Z,5.27
2022-10-05T06:58:30.665Z,5.17
2022-10-05T07:01:10.515Z,5.07
2022-10-05T07:03:46.455Z,5.00
2022-10-05T07:06:24.461Z,5.30
2022-10-05T07:09:20.330Z,5.13
2022-10-05T07:12:07.534Z,5.57
2022-10-05T07:15:16.778Z,5.67
2022-10-05T07:17:49.219Z,4.97
2022-10-05T07:20:30.143Z,5.10
2022-10-05T07:23:17.351Z,5.50
2022-10-05T07:25:43.623Z,5.37
2022-10-05T07:28:16.675Z,5.83
2022-10-05T07:30:57.023Z,4.37
2022-10-05T07:33:39.818Z,5.10
2022-10-05T07:36:38.607Z,4.53
2022-10-05T07:39:16.943Z,4.87
2022-10-05T07:41:47.705Z,4.67
2022-10-05T07:44:30.818Z,4.30
2022-10-05T07:47:19.282Z,4.43
2022-10-05T07:49:51.591Z,4.73
2022-10-05T07:52:35.046Z,4.50
2022-10-05T07:55:20.141Z,4.27
2022-10-05T07:58:08.224Z,4.77
2022-10-05T08:01:00.292Z,4.50
2022-10-05T08:03:46.730Z,4.10
2022-10-05T08:06:27.462Z,4.03
2022-10-05T08:09:12.869Z,4.20
2022-10-05T08:11:46.509Z,4.57
2022-10-05T08:14:16.813Z,4.20
2022-10-05T08:16:46.452Z,5.03
2022-10-05T08:19:39.430Z,4.73
2022-10-05T08:22:12.533Z,4.77
2022-10-05T08:24:57.309Z,3.90
2022-10-05T08:27:28.885Z,4.13
2022-10-05T08:29:56.584Z,5.03
2022-10-05T08:32:25.920Z,4.30
2022-10-05T08:35:04.353Z,4.40
2022-10-05T08:37:39.588Z,4.50
2022-10-05T08:40:32.310Z,3.87
2022-10-05T08:43:05.670Z,4.20
2022-10-05T08:45:50.761Z,4.43
2022-10-05T08:48:38.668Z,4.03
2022-10-05T08:51:26.748Z,3.80
2022-10-05T08:53:52.977Z,4.20
2022-10-05T08:56:28.613Z,4.17
2022-10-05T08:59:19.771Z,4.23
2022-10-05T09:02:04.909Z,4.63
2022-10-05T09:04:34.535Z,4.47
2022-10-05T09:07:26.901Z,3.87
2022-10-05T09:10:01.676Z,4.27
2022-10-05T09:13:11.275Z,4.30
2022-10-05T09:16:01.367Z,3.90
2022-10-05T09:18:46.200Z,3.43
2022-10-05T09:21:37.264Z,4.10
2022-10-05T09:24:12.432Z,4.10
2022-10-05T09:26:53.356Z,4.73
2022-10-05T09:29:49.942Z,3.87
2022-10-05T09:32:37.536Z,4.43
2022-10-05T09:35:25.909Z,4.10
2022-10-05T09:38:04.149Z,4.27
2022-10-05T09:41:18.655Z,4.03
2022-10-05T09:44:17.229Z,4.33
2022-10-05T09:46:46.726Z,4.00
2022-10-05T09:49:31.622Z,3.50
2022-10-05T09:52:09.015Z,3.83
2022-10-05T09:55:01.167Z,3.93
2022-10-05T09:57:59.909Z,3.83
2022-10-05T10:00:38.076Z,3.60
2022-10-05T10:03:13.777Z,4.43
2022-10-05T10:06:00.300Z,4.03
2022-10-05T10:08:45.446Z,4.43
2022-10-05T10:11:35.237Z,5.10
2022-10-05T10:14:39.030Z,4.47
2022-10-05T10:17:16.970Z,4.73
2022-10-05T10:20:16.204Z,4.87
2022-10-05T10:23:14.198Z,4.30
2022-10-05T10:26:11.775Z,4.37
2022-10-05T10:28:58.732Z,4.23
2022-10-05T10:31:46.740Z,4.00
2022-10-05T10:34:42.695Z,4.00
2022-10-05T10:37:30.669Z,4.00
2022-10-05T10:40:29.422Z,3.63
2022-10-05T10:42:56.152Z,3.93
2022-10-05T10:45:25.467Z,3.90
2022-10-05T10:48:03.243Z,3.73
2022-10-05T10:50:38.382Z,3.57
2022-10-05T10:53:24.907Z,3.77
2022-10-05T10:56:10.060Z,3.60
2022-10-05T10:59:05.181Z,3.20
2022-10-05T11:01:46.854Z,3.43
2022-10-05T11:04:32.145Z,3.63
2022-10-05T11:07:17.047Z,3.27
2022-10-05T11:10:16.157Z,3.70
2022-10-05T11:13:10.474Z,3.37
2022-10-05T11:15:55.256Z,3.20
2022-10-05T11:18:57.300Z,4.10
2022-10-05T11:21:34.104Z,3.13
2022-10-05T11:24:06.496Z,3.43
2022-10-05T11:27:10.343Z,3.07
2022-10-05T11:29:59.181Z,2.70
2022-10-05T11:32:25.574Z,3.70
2022-10-05T11:34:54.895Z,2.93
2022-10-05T11:37:48.520Z,2.83
2022-10-05T11:40:20.892Z,3.27
2022-10-05T11:43:04.257Z,3.03
2022-10-05T11:45:36.034Z,3.33
2022-10-05T11:48:08.341Z,3.10
2022-10-05T11:50:52.224Z,3.50
2022-10-05T11:53:27.940Z,3.00
2022-10-05T11:55:57.501Z,2.90
2022-10-05T11:58:31.395Z,3.40
2022-10-05T12:01:11.261Z,2.50
2022-10-05T12:03:53.234Z,4.37
2022-10-05T12:07:07.659Z,2.70
2022-10-05T12:10:06.132Z,2.90
2022-10-05T12:12:48.248Z,3.93
2022-10-05T12:15:18.824Z,3.53
2022-10-05T12:17:50.991Z,3.77
2022-10-05T12:20:25.817Z,3.77
2022-10-05T12:23:01.894Z,3.47
2022-10-05T12:25:33.733Z,3.60
2022-10-05T12:28:09.193Z,4.00
2022-10-05T12:30:54.668Z,3.20
2022-10-05T12:33:33.520Z,3.00
2022-10-05T12:36:08.859Z,3.10
2022-10-05T12:39:11.931Z,3.03
2022-10-05T12:41:45.387Z,3.13
2022-10-05T12:44:16.640Z,3.57
2022-10-05T12:47:01.047Z,3.60
2022-10-05T12:49:33.128Z,3.97
2022-10-05T12:52:04.033Z,3.50
2022-10-05T12:54:51.731Z,3.57
2022-10-05T12:57:37.000Z,3.57
2022-10-05T13:00:12.707Z,3.53
2022-10-05T13:03:01.764Z,4.20
2022-10-05T13:06:02.498Z,3.30
2022-10-05T13:08:36.465Z,3.70
2022-10-05T13:11:15.044Z,3.97
2022-10-05T13:13:56.981Z,2.90
2022-10-05T13:16:40.192Z,3.67
2022-10-05T13:19:16.921Z,3.50
2022-10-05T13:21:46.196Z,3.63
2022-10-05T13:24:26.559Z,3.03
2022-10-05T13:27:14.081Z,2.70
2022-10-05T13:29:51.075Z,3.00
2022-10-05T13:32:27.078Z,3.13
2022-10-05T13:35:10.615Z,2.87
2022-10-05T13:38:01.582Z,3.00
2022-10-05T13:40:46.500Z,2.70
2022-10-05T13:43:40.026Z,2.90
2022-10-05T13:46:17.477Z,3.13
2022-10-05T13:49:04.452Z,3.10
2022-10-05T13:51:42.643Z,2.23
2022-10-05T13:54:35.180Z,2.30
2022-10-05T13:57:17.116Z,2.60
2022-10-05T13:59:57.319Z,2.50
2022-10-05T14:02:28.740Z,2.57
2022-10-05T14:05:01.035Z,2.40
2022-10-05T14:07:36.397Z,2.60
2022-10-05T14:10:06.810Z,2.13
2022-10-05T14:12:40.319Z,2.83
2022-10-05T14:15:29.516Z,1.77
2022-10-05T14:17:55.846Z,1.90
2022-10-05T14:20:24.959Z,2.33
2022-10-05T14:22:57.125Z,2.30
2022-10-05T14:25:23.502Z,2.00
2022-10-05T14:27:55.627Z,2.00
2022-10-05T14:30:25.537Z,2.57
2022-10-05T14:32:56.550Z,2.23
2022-10-05T14:35:41.508Z,2.17
2022-10-05T14:38:18.400Z,2.53
2022-10-05T14:40:44.729Z,1.97
2022-10-05T14:43:13.741Z,2.27
2022-10-05T14:45:52.273Z,2.77
2022-10-05T14:48:18.641Z,2.33
2022-10-05T14:50:50.870Z,2.20
2022-10-05T14:53:21.413Z,2.20
2022-10-05T14:56:17.059Z,2.10
2022-10-05T14:58:56.322Z,2.50
2022-10-05T15:01:31.476Z,3.20
2022-10-05T15:04:25.241Z,2.20
2022-10-05T15:07:04.325Z,2.40
2022-10-05T15:09:44.942Z,2.83
2022-10-05T15:12:17.278Z,2.43
2022-10-05T15:14:46.637Z,2.50
2022-10-05T15:17:31.013Z,2.60
2022-10-05T15:19:57.322Z,2.40
2022-10-05T15:22:30.185Z,2.20
2022-10-05T15:25:14.573Z,2.47
2022-10-05T15:28:01.800Z,2.60
2022-10-05T15:30:28.151Z,2.93
2022-10-05T15:33:05.112Z,2.63
2022-10-05T15:35:43.252Z,2.60
2022-10-05T15:38:20.785Z,2.33
2022-10-05T15:40:51.521Z,3.37
2022-10-05T15:43:19.620Z,2.53
2022-10-05T15:46:17.356Z,2.93
2022-10-05T15:48:49.309Z,2.80
2022-10-05T15:51:43.442Z,2.40
2022-10-05T15:54:31.419Z,2.70
2022-10-05T15:57:07.919Z,2.90
2022-10-05T16:00:04.386Z,2.50
2022-10-05T16:02:36.704Z,2.43
2022-10-05T16:05:40.307Z,2.60
2022-10-05T16:08:34.615Z,3.03
2022-10-05T16:11:01.235Z,2.47
2022-10-05T16:13:48.906Z,2.53
2022-10-05T16:16:26.823Z,2.60
2022-10-05T16:19:31.735Z,2.83
2022-10-05T16:21:57.952Z,3.37
2022-10-05T16:24:40.319Z,2.80
2022-10-05T16:27:32.644Z,2.90
2022-10-05T16:29:58.939Z,2.40
2022-10-05T16:33:01.973Z,2.70
2022-10-05T16:35:31.000Z,2.60
2022-10-05T16:38:10.247Z,3.07
2022-10-05T16:41:04.785Z,2.50
2022-10-05T16:43:31.158Z,2.63
2022-10-05T16:46:13.317Z,3.13
2022-10-05T16:48:45.525Z,3.40
2022-10-05T16:51:26.906Z,3.30
2022-10-05T16:54:11.735Z,3.00
2022-10-05T16:56:47.355Z,2.87
2022-10-05T16:59:31.957Z,2.80
2022-10-05T17:02:27.139Z,3.50
2022-10-05T17:05:09.987Z,2.97
2022-10-05T17:07:59.114Z,2.57
2022-10-05T17:10:28.372Z,2.50
2022-10-05T17:13:11.400Z,2.83
2022-10-05T17:15:56.436Z,3.27
2022-10-05T17:18:53.776Z,3.23
2022-10-05T17:21:21.243Z,2.80
2022-10-05T17:23:53.605Z,2.93
2022-10-05T17:26:22.880Z,3.67
2022-10-05T17:28:52.173Z,3.03
2022-10-05T17:31:21.613Z,2.87
2022-10-05T17:34:00.082Z,3.50
2022-10-05T17:36:45.193Z,3.30
2022-10-05T17:39:18.472Z,3.37
2022-10-05T17:41:45.240Z,3.97
2022-10-05T17:44:16.035Z,3.30
2022-10-05T17:46:47.819Z,3.53
2022-10-05T17:49:14.043Z,3.60
2022-10-05T17:51:59.008Z,3.63
2022-10-05T17:55:14.131Z,3.47
2022-10-05T17:57:41.812Z,2.93
2022-10-05T18:00:31.293Z,3.37
2022-10-05T18:02:58.043Z,2.43
2022-10-05T18:05:28.879Z,2.67
2022-10-05T18:08:13.423Z,3.00
2022-10-05T18:11:10.800Z,3.50
2022-10-05T18:13:41.411Z,3.13
2022-10-05T18:16:09.440Z,2.70
2022-10-05T18:18:55.714Z,2.67
2022-10-05T18:21:32.074Z,3.93
2022-10-05T18:24:40.715Z,2.87
2022-10-05T18:27:14.535Z,3.07
2022-10-05T18:30:05.546Z,3.00
2022-10-05T18:32:39.096Z,3.30
2022-10-05T18:35:16.354Z,3.30
2022-10-05T18:37:56.195Z,3.40
2022-10-05T18:40:48.245Z,3.50
2022-10-05T18:43:18.006Z,2.67
2022-10-05T18:46:14.812Z,2.00
2022-10-05T18:48:50.967Z,2.70
2022-10-05T18:51:48.307Z,2.30
2022-10-05T18:54:25.790Z,2.47
2022-10-05T18:56:52.663Z,2.20
2022-10-05T18:59:40.721Z,2.30
2022-10-05T19:02:40.351Z,2.30
2022-10-05T19:05:48.740Z,2.50
2022-10-05T19:08:28.007Z,2.43
2022-10-05T19:11:01.306Z,2.67
2022-10-05T19:13:37.681Z,2.00
2022-10-05T19:16:14.560Z,3.10
2022-10-05T19:19:04.371Z,3.00
2022-10-05T19:21:55.654Z,3.10
2022-10-05T19:24:41.544Z,2.40
2022-10-05T19:27:55.480Z,2.37
2022-10-05T19:30:27.026Z,2.83
2022-10-05T19:33:04.857Z,2.70
2022-10-05T19:35:49.589Z,2.10
2022-10-05T19:38:25.187Z,2.47
2022-10-05T19:41:05.545Z,2.47
2022-10-05T19:43:34.905Z,2.57
2022-10-05T19:46:30.666Z,2.70
2022-10-05T19:48:57.145Z,2.40
2022-10-05T19:51:25.124Z,2.40
2022-10-05T19:53:55.785Z,2.27
2022-10-05T19:56:25.093Z,2.53
2022-10-05T19:58:57.364Z,2.50
2022-10-05T20:01:33.910Z,2.27
2022-10-05T20:04:00.309Z,1.90
2022-10-05T20:06:27.010Z,2.57
2022-10-05T20:08:59.752Z,2.50
2022-10-05T20:11:27.157Z,2.40
2022-10-05T20:13:53.458Z,2.50
2022-10-05T20:16:38.645Z,2.17
2022-10-05T20:19:45.520Z,2.03
2022-10-05T20:22:29.880Z,2.00
2022-10-05T20:24:59.908Z,2.23
2022-10-05T20:27:38.677Z,2.50
2022-10-05T20:30:05.816Z,2.13
2022-10-05T20:32:32.064Z,3.53
2022-10-05T20:34:58.385Z,2.57
2022-10-05T20:37:24.785Z,2.77
2022-10-05T20:39:53.880Z,2.20
2022-10-05T20:42:20.711Z,2.30
2022-10-05T20:44:47.053Z,3.23
2022-10-05T20:47:13.721Z,2.93
2022-10-05T20:49:44.383Z,3.73
2022-10-05T20:52:11.603Z,3.50
2022-10-05T20:54:39.025Z,3.00
2022-10-05T20:57:07.121Z,2.80
2022-10-05T20:59:34.036Z,3.47
2022-10-05T21:02:01.429Z,5.07
2022-10-05T21:04:40.034Z,3.13
2022-10-05T21:07:08.098Z,2.40
2022-10-05T21:09:34.546Z,2.50
2022-10-05T21:12:00.792Z,2.50
2022-10-05T21:14:28.068Z,2.70
2022-10-05T21:16:54.308Z,2.53
2022-10-05T21:19:20.582Z,2.30
2022-10-05T21:21:46.823Z,2.93
2022-10-05T21:24:14.235Z,2.40
2022-10-05T21:26:41.605Z,2.53
2022-10-05T21:29:12.498Z,2.53
2022-10-05T21:31:39.739Z,2.60
2022-10-05T21:34:06.284Z,2.97
2022-10-05T21:36:33.230Z,3.13
2022-10-05T21:38:59.598Z,3.27
2022-10-05T21:41:25.866Z,3.47
2022-10-05T21:43:52.320Z,3.13
2022-10-05T21:46:20.214Z,2.80
2022-10-05T21:48:47.879Z,4.50
2022-10-05T21:51:16.511Z,3.70
2022-10-05T21:53:49.590Z,4.17
2022-10-05T21:56:17.524Z,3.83
2022-10-05T21:58:46.432Z,3.63
2022-10-05T22:01:13.106Z,3.10
2022-10-05T22:03:49.722Z,2.97
2022-10-05T22:06:15.981Z,2.30
2022-10-05T22:08:42.396Z,1.77
2022-10-05T22:11:12.039Z,2.50
2022-10-05T22:13:45.364Z,1.80
2022-10-05T22:16:12.874Z,1.80
2022-10-05T22:18:39.798Z,2.50
2022-10-05T22:21:06.856Z,1.80
2022-10-05T22:23:36.046Z,1.70
2022-10-05T22:26:03.163Z,2.00
2022-10-05T22:28:31.201Z,1.90
2022-10-05T22:31:01.573Z,2.50
2022-10-05T22:33:27.902Z,2.00
2022-10-05T22:35:54.224Z,1.53
2022-10-05T22:38:20.561Z,1.73
2022-10-05T22:40:46.877Z,2.10
2022-10-05T22:43:13.179Z,1.97
2022-10-05T22:45:39.568Z,2.33
2022-10-05T22:48:05.999Z,2.33
2022-10-05T22:50:32.343Z,2.17
2022-10-05T22:52:58.664Z,2.00
2022-10-05T22:55:25.041Z,1.93
2022-10-05T22:57:51.355Z,2.17
2022-10-05T23:00:17.770Z,2.17
2022-10-05T23:02:45.271Z,1.47
2022-10-05T23:05:13.267Z,1.40
2022-10-05T23:07:42.083Z,1.20
2022-10-05T23:10:12.147Z,1.23
2022-10-05T23:12:38.617Z,1.40
2022-10-05T23:15:05.971Z,1.50
2022-10-05T23:17:33.559Z,1.10
2022-10-05T23:19:59.868Z,1.23
2022-10-05T23:22:26.252Z,0.90
2022-10-05T23:24:52.634Z,1.13
2022-10-05T23:27:19.245Z,1.10
2022-10-05T23:29:45.493Z,1.00
2022-10-05T23:32:12.234Z,1.00
2022-10-05T23:34:38.550Z,0.93
2022-10-05T23:37:04.814Z,1.00
2022-10-05T23:39:31.178Z,0.70
2022-10-05T23:41:57.478Z,1.30
2022-10-05T23:44:23.777Z,1.30
2022-10-05T23:46:50.015Z,0.87
2022-10-05T23:49:16.328Z,1.27
2022-10-05T23:51:42.697Z,1.30
2022-10-05T23:54:09.060Z,1.90
2022-10-05T23:56:35.405Z,1.60
2022-10-05T23:59:01.718Z,1.60
